Terminal Aerodrome Forecast
Issued by NWS Grand Forks, ND

Home | Current Version | Previous Version | Text Only | Print | Product List | Glossary Off
Versions: 1 2 3 4 5 6 7 8 9 10 11 12 13 14 15 16 17

000
FTUS43 KFGF 310500
TAFFAR
TAF
KFAR 310520Z 3106/0106 15009KT P6SM SCT050
     FM311000 14014G21KT P6SM -TSRA OVC040CB
     FM311900 19014KT P6SM BKN050
     FM312200 29012KT P6SM BKN070
     FM010200 28007KT P6SM SCT100=

USA.gov is the U.S. government's official web portal to all federal, state and local government web resources and services.